TAF KERI
KERI 072320Z 0800/0824 20008KT P6SM BKN035 FM080700 22008KT P6SM SCT050 BKN090 TEMPO 0808/0812 3SM -SN OVC030 FM081700 25012KT P6SM BKN050 BKN090=
METAR KERI
WC KERI
WS KERI
WV KERI